PWSweather.com
Personal Weather Stations
Station Observations
IESRVJEREZ
Ies Fco. Romero Vargas, Jerez De La FronteraES 11408

Ies Fco. Romero VargasJerez De La FronteraES 11408

Lat: 36.67203, Lon: -6.129915

Elevation: 98

Station Type: FWS 20

http://www.iesromerovargas.net/estacion_meteorologica/Cumulus/web/

Latest ConditionsUpdated 5:45:00 PM GMT+01:01 Sunday, Feb 14, 2016
Currently Today's Max Today's Min Today's Average
Temperature 56.5°F13.6°C 63.1°F17.3°C 54.1°F12.3°C 60.5°F15.8°C
Dew Point 45.3°F7.4°C 60.0°F15.6°C 39.9°F4.4°C 53.4°F11.9°C
Winds 13.0 mph NW20.9 kmh NW 15.2 mph NW24.5 kmh NW - 8.6 mph 13.8 kmh
Wind Gusts 22.8 mph36.7 kmh 31.1 mph50.1 kmh - -
Humidity 66% 98% 44% 79%
Pressure 29.89 in1012.2 mb 29.99 in1015.6 mb 29.85 in1010.8 mb -
Precipitation - 0.14 in3.6 mm - -
Hour Temp Dew Point Humidity Winds Wind Gusts Pressure Precip Precip Rate Daily Precip Total
05:45 PM 56.5°F13.6°C 45.3°F7.4°C 66% 13.0 mph NW20.9 kmh NW 22.8 mph36.7 kmh 29.89 in1012.2 mb 0.00 in0.0 mm 0.00 in0.0 mm 0.14 in3.6 mm
05:30 PM 54.1°F12.3°C 46.4°F8.0°C 75% 8.3 mph NW13.4 kmh NW 19.7 mph31.7 kmh 29.88 in1011.9 mb 0.00 in0.0 mm 0.00 in0.0 mm 0.14 in3.6 mm
05:15 PM 55.0°F12.8°C 42.7°F5.9°C 63% 7.6 mph WNW12.2 kmh WNW 23.5 mph37.8 kmh 29.89 in1012.2 mb 0.00 in0.0 mm 0.00 in0.0 mm 0.14 in3.6 mm
05:00 PM 58.3°F14.6°C 44.9°F7.2°C 61% 8.3 mph NW13.4 kmh NW 28.2 mph45.4 kmh 29.88 in1011.9 mb 0.00 in0.0 mm 0.00 in0.0 mm 0.14 in3.6 mm
04:45 PM 61.2°F16.2°C 41.9°F5.5°C 49% 9.8 mph NW15.8 kmh NW 23.5 mph37.8 kmh 29.86 in1011.2 mb 0.00 in0.0 mm 0.00 in0.0 mm 0.14 in3.6 mm
04:30 PM 59.9°F15.5°C 41.2°F5.1°C 50% 14.5 mph WNW23.3 kmh WNW 25.9 mph41.7 kmh 29.86 in1011.2 mb 0.00 in0.0 mm 0.00 in0.0 mm 0.14 in3.6 mm
04:15 PM 62.1°F16.7°C 39.9°F4.4°C 44% 14.5 mph NW23.3 kmh NW 27.3 mph43.9 kmh 29.86 in1011.2 mb 0.00 in0.0 mm 0.00 in0.0 mm 0.14 in3.6 mm
04:00 PM 62.2°F16.8°C 42.9°F6.1°C 49% 12.1 mph WNW19.5 kmh WNW 24.4 mph39.3 kmh 29.86 in1011.2 mb 0.00 in0.0 mm 0.00 in0.0 mm 0.14 in3.6 mm
03:45 PM 63.0°F17.2°C 41.9°F5.5°C 46% 15.2 mph NW24.5 kmh NW 28.9 mph46.5 kmh 29.85 in1010.8 mb 0.01 in0.3 mm 0.00 in0.0 mm 0.14 in3.6 mm
03:30 PM 63.1°F17.3°C 40.9°F4.9°C 44% 13.0 mph NW20.9 kmh NW 28.9 mph46.5 kmh 29.86 in1011.2 mb 0.01 in0.3 mm 0.00 in0.0 mm 0.14 in3.6 mm
03:15 PM 62.6°F17.0°C 45.2°F7.3°C 53% 9.2 mph NW14.8 kmh NW 25.1 mph40.4 kmh 29.87 in1011.5 mb 0.01 in0.3 mm 0.00 in0.0 mm 0.14 in3.6 mm
03:00 PM 63.0°F17.2°C 45.6°F7.6°C 53% 8.3 mph W13.4 kmh W 31.1 mph50.1 kmh 29.86 in1011.2 mb 0.01 in0.3 mm 0.01 in0.3 mm 0.14 in3.6 mm
02:45 PM 62.4°F16.9°C 47.0°F8.3°C 57% 8.3 mph NW13.4 kmh NW 29.8 mph48.0 kmh 29.87 in1011.5 mb 0.00 in0.0 mm 0.00 in0.0 mm 0.13 in3.3 mm
02:30 PM 62.6°F17.0°C 45.7°F7.6°C 54% 9.8 mph NW15.8 kmh NW 25.9 mph41.7 kmh 29.88 in1011.9 mb 0.00 in0.0 mm 0.00 in0.0 mm 0.13 in3.3 mm
02:15 PM 62.2°F16.8°C 48.2°F9.0°C 60% 9.2 mph WNW14.8 kmh WNW 28.2 mph45.4 kmh 29.88 in1011.9 mb 0.00 in0.0 mm 0.00 in0.0 mm 0.13 in3.3 mm
02:00 PM 62.6°F17.0°C 45.2°F7.3°C 53% 12.1 mph NW19.5 kmh NW 30.4 mph48.9 kmh 29.89 in1012.2 mb 0.00 in0.0 mm 0.00 in0.0 mm 0.13 in3.3 mm
01:45 PM 61.2°F16.2°C 47.2°F8.4°C 60% 13.0 mph WNW20.9 kmh WNW 21.3 mph34.3 kmh 29.89 in1012.2 mb 0.00 in0.0 mm 0.00 in0.0 mm 0.13 in3.3 mm
01:30 PM 61.5°F16.4°C 48.4°F9.1°C 62% 8.3 mph W13.4 kmh W 22.1 mph35.6 kmh 29.89 in1012.2 mb 0.00 in0.0 mm 0.00 in0.0 mm 0.13 in3.3 mm
01:15 PM 62.1°F16.7°C 49.3°F9.6°C 63% 8.3 mph WNW13.4 kmh WNW 24.4 mph39.3 kmh 29.90 in1012.5 mb 0.00 in0.0 mm 0.00 in0.0 mm 0.13 in3.3 mm
01:00 PM 63.0°F17.2°C 49.8°F9.9°C 62% 8.3 mph W13.4 kmh W 24.4 mph39.3 kmh 29.91 in1012.9 mb 0.00 in0.0 mm 0.00 in0.0 mm 0.13 in3.3 mm
12:45 PM 62.4°F16.9°C 49.2°F9.6°C 62% 12.1 mph NW19.5 kmh NW 23.5 mph37.8 kmh 29.91 in1012.9 mb 0.00 in0.0 mm 0.00 in0.0 mm 0.13 in3.3 mm
12:30 PM 62.1°F16.7°C 48.5°F9.2°C 61% 9.8 mph NW15.8 kmh NW 30.4 mph48.9 kmh 29.91 in1012.9 mb 0.00 in0.0 mm 0.00 in0.0 mm 0.13 in3.3 mm
12:15 PM 62.8°F17.1°C 51.7°F10.9°C 67% 13.6 mph NW21.9 kmh NW 21.3 mph34.3 kmh 29.91 in1012.9 mb 0.00 in0.0 mm 0.00 in0.0 mm 0.13 in3.3 mm
12:00 PM 60.8°F16.0°C 52.1°F11.2°C 73% 5.4 mph NW8.7 kmh NW 17.4 mph28.0 kmh 29.91 in1012.9 mb 0.00 in0.0 mm 0.00 in0.0 mm 0.13 in3.3 mm
11:45 AM 59.2°F15.1°C 50.2°F10.1°C 72% 9.8 mph NW15.8 kmh NW 22.1 mph35.6 kmh 29.91 in1012.9 mb 0.00 in0.0 mm 0.00 in0.0 mm 0.13 in3.3 mm
11:30 AM 62.4°F16.9°C 52.1°F11.2°C 69% 13.6 mph WNW21.9 kmh WNW 26.6 mph42.8 kmh 29.91 in1012.9 mb 0.00 in0.0 mm 0.00 in0.0 mm 0.13 in3.3 mm
11:15 AM 62.1°F16.7°C 52.9°F11.6°C 72% 6.9 mph NW11.1 kmh NW 19.0 mph30.6 kmh 29.90 in1012.5 mb 0.00 in0.0 mm 0.00 in0.0 mm 0.13 in3.3 mm
11:00 AM 60.8°F16.0°C 54.3°F12.4°C 79% 11.4 mph NW18.3 kmh NW 19.0 mph30.6 kmh 29.91 in1012.9 mb 0.04 in1.0 mm 0.00 in0.0 mm 0.13 in3.3 mm
10:45 AM 59.7°F15.4°C 53.9°F12.2°C 81% 6.9 mph W11.1 kmh W 15.9 mph25.6 kmh 29.90 in1012.5 mb 0.04 in1.0 mm 0.00 in0.0 mm 0.13 in3.3 mm
10:30 AM 59.5°F15.3°C 55.4°F13.0°C 86% 6.9 mph WNW11.1 kmh WNW 15.2 mph24.5 kmh 29.90 in1012.5 mb 0.04 in1.0 mm 0.00 in0.0 mm 0.13 in3.3 mm
10:15 AM 59.4°F15.2°C 55.5°F13.1°C 87% 10.7 mph NW17.2 kmh NW 22.8 mph36.7 kmh 29.91 in1012.9 mb 0.04 in1.0 mm 0.16 in4.1 mm 0.13 in3.3 mm
10:00 AM 60.8°F16.0°C 55.3°F12.9°C 82% 6.9 mph NW11.1 kmh NW 16.8 mph27.0 kmh 29.90 in1012.5 mb 0.00 in0.0 mm 0.00 in0.0 mm 0.09 in2.3 mm
09:45 AM 60.8°F16.0°C 55.6°F13.1°C 83% 9.2 mph WNW14.8 kmh WNW 15.2 mph24.5 kmh 29.91 in1012.9 mb 0.00 in0.0 mm 0.00 in0.0 mm 0.09 in2.3 mm
09:30 AM 60.8°F16.0°C 56.3°F13.5°C 85% 12.1 mph NW19.5 kmh NW 18.3 mph29.5 kmh 29.91 in1012.9 mb 0.00 in0.0 mm 0.00 in0.0 mm 0.09 in2.3 mm
09:15 AM 60.6°F15.9°C 56.1°F13.4°C 85% 8.3 mph NW13.4 kmh NW 15.9 mph25.6 kmh 29.89 in1012.2 mb 0.00 in0.0 mm 0.00 in0.0 mm 0.09 in2.3 mm
09:00 AM 60.6°F15.9°C 56.1°F13.4°C 85% 12.1 mph WNW19.5 kmh WNW 17.4 mph28.0 kmh 29.89 in1012.2 mb 0.00 in0.0 mm 0.00 in0.0 mm 0.09 in2.3 mm
08:45 AM 59.7°F15.4°C 55.9°F13.3°C 87% 11.4 mph W18.3 kmh W 18.3 mph29.5 kmh 29.89 in1012.2 mb 0.00 in0.0 mm 0.00 in0.0 mm 0.09 in2.3 mm
08:30 AM 59.7°F15.4°C 55.9°F13.3°C 87% 9.8 mph WNW15.8 kmh WNW 15.2 mph24.5 kmh 29.89 in1012.2 mb 0.00 in0.0 mm 0.00 in0.0 mm 0.09 in2.3 mm
08:15 AM 59.7°F15.4°C 55.5°F13.1°C 86% 8.3 mph W13.4 kmh W 14.5 mph23.3 kmh 29.89 in1012.2 mb 0.00 in0.0 mm 0.00 in0.0 mm 0.09 in2.3 mm
08:00 AM 59.7°F15.4°C 56.5°F13.6°C 89% 7.6 mph NW12.2 kmh NW 15.2 mph24.5 kmh 29.89 in1012.2 mb 0.00 in0.0 mm 0.00 in0.0 mm 0.09 in2.3 mm
07:45 AM 59.7°F15.4°C 56.8°F13.8°C 90% 6.9 mph WNW11.1 kmh WNW 11.4 mph18.3 kmh 29.90 in1012.5 mb 0.00 in0.0 mm 0.00 in0.0 mm 0.09 in2.3 mm
07:30 AM 59.7°F15.4°C 57.4°F14.1°C 92% 6.0 mph WNW9.7 kmh WNW 9.8 mph15.8 kmh 29.90 in1012.5 mb 0.00 in0.0 mm 0.00 in0.0 mm 0.09 in2.3 mm
07:15 AM 59.7°F15.4°C 57.4°F14.1°C 92% 3.1 mph W5.0 kmh W 9.2 mph14.8 kmh 29.91 in1012.9 mb 0.00 in0.0 mm 0.00 in0.0 mm 0.09 in2.3 mm
07:00 AM 59.7°F15.4°C 57.1°F13.9°C 91% 4.5 mph W7.2 kmh W 7.6 mph12.2 kmh 29.89 in1012.2 mb 0.00 in0.0 mm 0.00 in0.0 mm 0.09 in2.3 mm
06:45 AM 59.7°F15.4°C 57.1°F13.9°C 91% 4.5 mph W7.2 kmh W 9.2 mph14.8 kmh 29.88 in1011.9 mb 0.00 in0.0 mm 0.00 in0.0 mm 0.09 in2.3 mm
06:30 AM 59.7°F15.4°C 57.4°F14.1°C 92% 6.9 mph NW11.1 kmh NW 10.7 mph17.2 kmh 29.90 in1012.5 mb 0.00 in0.0 mm 0.00 in0.0 mm 0.09 in2.3 mm
06:15 AM 59.7°F15.4°C 57.4°F14.1°C 92% 5.4 mph SW8.7 kmh SW 9.8 mph15.8 kmh 29.91 in1012.9 mb 0.00 in0.0 mm 0.00 in0.0 mm 0.09 in2.3 mm
06:00 AM 59.7°F15.4°C 57.1°F13.9°C 91% 4.5 mph W7.2 kmh W 10.7 mph17.2 kmh 29.90 in1012.5 mb 0.00 in0.0 mm 0.00 in0.0 mm 0.09 in2.3 mm
05:45 AM 59.7°F15.4°C 57.1°F13.9°C 91% 4.5 mph W7.2 kmh W 9.2 mph14.8 kmh 29.90 in1012.5 mb 0.00 in0.0 mm 0.00 in0.0 mm 0.09 in2.3 mm
05:30 AM 59.7°F15.4°C 57.1°F13.9°C 91% 3.8 mph W6.1 kmh W 7.6 mph12.2 kmh 29.92 in1013.2 mb 0.00 in0.0 mm 0.00 in0.0 mm 0.09 in2.3 mm
05:15 AM 59.7°F15.4°C 57.4°F14.1°C 92% 2.2 mph WNW3.5 kmh WNW 9.2 mph14.8 kmh 29.92 in1013.2 mb 0.00 in0.0 mm 0.00 in0.0 mm 0.09 in2.3 mm
05:00 AM 59.7°F15.4°C 57.4°F14.1°C 92% 3.1 mph WNW5.0 kmh WNW 8.3 mph13.4 kmh 29.93 in1013.5 mb 0.00 in0.0 mm 0.00 in0.0 mm 0.09 in2.3 mm
04:45 AM 59.7°F15.4°C 57.7°F14.3°C 93% 2.2 mph WNW3.5 kmh WNW 6.9 mph11.1 kmh 29.93 in1013.5 mb 0.00 in0.0 mm 0.00 in0.0 mm 0.09 in2.3 mm
04:30 AM 60.8°F16.0°C 58.5°F14.7°C 92% 3.8 mph W6.1 kmh W 11.4 mph18.3 kmh 29.94 in1013.9 mb 0.00 in0.0 mm 0.00 in0.0 mm 0.09 in2.3 mm
04:15 AM 60.8°F16.0°C 58.8°F14.9°C 93% 4.5 mph NW7.2 kmh NW 11.4 mph18.3 kmh 29.94 in1013.9 mb 0.00 in0.0 mm 0.00 in0.0 mm 0.09 in2.3 mm
04:00 AM 60.8°F16.0°C 59.1°F15.1°C 94% 5.4 mph W8.7 kmh W 11.4 mph18.3 kmh 29.94 in1013.9 mb 0.00 in0.0 mm 0.00 in0.0 mm 0.09 in2.3 mm
03:45 AM 60.8°F16.0°C 59.4°F15.2°C 95% 7.6 mph WNW12.2 kmh WNW 15.2 mph24.5 kmh 29.94 in1013.9 mb 0.00 in0.0 mm 0.00 in0.0 mm 0.09 in2.3 mm
03:30 AM 61.0°F16.1°C 59.6°F15.3°C 95% 9.8 mph WNW15.8 kmh WNW 14.5 mph23.3 kmh 29.93 in1013.5 mb 0.00 in0.0 mm 0.00 in0.0 mm 0.09 in2.3 mm
03:15 AM 60.8°F16.0°C 59.7°F15.4°C 96% 6.0 mph WNW9.7 kmh WNW 18.3 mph29.5 kmh 29.94 in1013.9 mb 0.01 in0.3 mm 0.00 in0.0 mm 0.09 in2.3 mm
03:00 AM 60.8°F16.0°C 59.7°F15.4°C 96% 6.0 mph WNW9.7 kmh WNW 17.4 mph28.0 kmh 29.94 in1013.9 mb 0.02 in0.5 mm 0.00 in0.0 mm 0.09 in2.3 mm
02:45 AM 60.8°F16.0°C 60.0°F15.6°C 97% 8.3 mph NW13.4 kmh NW 17.4 mph28.0 kmh 29.94 in1013.9 mb 0.02 in0.5 mm 0.00 in0.0 mm 0.09 in2.3 mm
02:30 AM 60.8°F16.0°C 60.0°F15.6°C 97% 9.8 mph WNW15.8 kmh WNW 18.3 mph29.5 kmh 29.94 in1013.9 mb 0.02 in0.5 mm 0.04 in1.0 mm 0.09 in2.3 mm
02:15 AM 59.7°F15.4°C 59.2°F15.1°C 98% 10.7 mph NW17.2 kmh NW 17.4 mph28.0 kmh 29.95 in1014.2 mb 0.01 in0.3 mm 0.04 in1.0 mm 0.08 in2.0 mm
02:00 AM 60.8°F16.0°C 60.0°F15.6°C 97% 9.2 mph WNW14.8 kmh WNW 17.4 mph28.0 kmh 29.95 in1014.2 mb 0.00 in0.0 mm 0.00 in0.0 mm 0.07 in1.8 mm
01:45 AM 59.7°F15.4°C 58.9°F14.9°C 97% 8.3 mph NW13.4 kmh NW 17.4 mph28.0 kmh 29.96 in1014.6 mb 0.01 in0.3 mm 0.00 in0.0 mm 0.07 in1.8 mm
01:30 AM 59.7°F15.4°C 58.9°F14.9°C 97% 8.3 mph W13.4 kmh W 17.4 mph28.0 kmh 29.97 in1014.9 mb 0.02 in0.5 mm 0.00 in0.0 mm 0.07 in1.8 mm
01:15 AM 59.7°F15.4°C 58.9°F14.9°C 97% 9.2 mph WNW14.8 kmh WNW 18.3 mph29.5 kmh 29.97 in1014.9 mb 0.06 in1.5 mm 0.00 in0.0 mm 0.07 in1.8 mm
01:00 AM 59.7°F15.4°C 58.9°F14.9°C 97% 10.7 mph NW17.2 kmh NW 15.9 mph25.6 kmh 29.98 in1015.2 mb 0.07 in1.8 mm 0.00 in0.0 mm 0.07 in1.8 mm
12:45 AM 59.7°F15.4°C 58.6°F14.8°C 96% 6.9 mph W11.1 kmh W 13.0 mph20.9 kmh 29.98 in1015.2 mb 0.07 in1.8 mm 0.04 in1.0 mm 0.06 in1.5 mm
12:30 AM 59.7°F15.4°C 58.3°F14.6°C 95% 10.7 mph WNW17.2 kmh WNW 16.8 mph27.0 kmh 29.98 in1015.2 mb 0.06 in1.5 mm 0.16 in4.1 mm 0.05 in1.3 mm
12:15 AM 59.7°F15.4°C 58.0°F14.4°C 94% 6.9 mph NW11.1 kmh NW 14.5 mph23.3 kmh 29.99 in1015.6 mb 0.02 in0.5 mm 0.04 in1.0 mm 0.01 in0.3 mm
12:00 AM 60.8°F16.0°C 58.5°F14.7°C 92% 12.1 mph WNW19.5 kmh WNW 15.2 mph24.5 kmh 29.99 in1015.6 mb 0.01 in0.3 mm 0.00 in0.0 mm 0.01 in0.3 mm